Time;durP1;ratioP1;P1;durP2;ratioP2;P2;SDS_P1;SDS_P2;PMS_P1;PMS_P2;Temp;Humidity;BMP_temperature;BMP_pressure;BME280_temperature;BME280_humidity;BME280_pressure;Samples;Min_cycle;Max_cycle;Signal;HPM_P1;HPM_P2
2023/08/24 00:00:04;;;;;;;;;;;29.50;90.00;29.50;99461.00;;;;337306;28;96565;-92
2023/08/24 00:00:16;;;;;;;;;;;29.50;90.00;29.40;99460.00;;;;339475;28;83677;-92
2023/08/24 00:00:28;;;;;;;;;;;29.50;90.10;29.40;99460.00;;;;338669;28;95662;-92
2023/08/24 00:00:41;;;;;;;;;;;29.50;90.20;29.30;99459.00;;;;340815;28;82484;-92
2023/08/24 00:00:52;;;;;;;;;;;29.50;90.20;29.30;99459.00;;;;341288;28;97587;-93
2023/08/24 00:01:04;;;;;;;;;;;29.40;90.20;29.30;99451.00;;;;339473;28;83415;-92
2023/08/24 00:01:16;;;;;;;;;;;29.40;90.20;29.30;99448.00;;;;341397;28;95608;-92
2023/08/24 00:01:28;;;;;;;;;;;29.40;90.10;29.30;99455.00;;;;340818;28;83346;-92
2023/08/24 00:01:40;;;;;;;;;;;29.40;90.20;29.30;99453.00;;;;339939;28;96301;-93
2023/08/24 00:01:52;;;;;;;;;;;29.40;90.20;29.20;99459.00;;;;340859;28;83271;-92
2023/08/24 00:02:04;;;;;;;;;;;29.40;90.20;29.20;99455.00;;;;337366;28;95406;-92
2023/08/24 00:02:16;;;;;;;;;;;29.40;90.20;29.20;99463.00;;;;340841;28;83411;-92
2023/08/24 00:02:28;;;;;;;;;;;29.40;90.30;29.20;99459.00;;;;338523;28;94628;-92
2023/08/24 00:02:40;;;;;;;;;;;29.40;90.20;29.20;99452.00;;;;343480;28;83315;-92
2023/08/24 00:02:52;;;;;;;;;;;29.40;90.20;29.30;99457.00;;;;339749;28;95681;-93
2023/08/24 00:03:04;;;;;;;;;;;29.30;90.10;29.20;99454.00;;;;339347;28;82662;-92
2023/08/24 00:03:16;;;;;;;;;;;29.30;90.10;29.20;99455.00;;;;337447;28;94693;-92
2023/08/24 00:03:28;;;;;;;;;;;29.30;90.10;29.20;99454.00;;;;340801;28;83410;-92
2023/08/24 00:03:40;;;;;;;;;;;29.30;90.30;29.20;99454.00;;;;338843;28;93041;-92
2023/08/24 00:03:52;;;;;;;;;;;29.30;90.30;29.20;99451.00;;;;338179;28;83373;-92
2023/08/24 00:04:04;;;;;;;;;;;29.30;90.30;29.20;99453.00;;;;337285;28;95656;-92
2023/08/24 00:04:16;;;;;;;;;;;29.30;90.20;29.30;99452.00;;;;340733;28;83361;-92
2023/08/24 00:04:28;;;;;;;;;;;29.30;90.20;29.30;99452.00;;;;340075;28;95359;-92
2023/08/24 00:04:40;;;;;;;;;;;29.30;90.30;29.40;99454.00;;;;340782;28;83495;-92
2023/08/24 00:04:53;;;;;;;;;;;29.30;90.30;29.40;99467.00;;;;341288;28;97393;-92
2023/08/24 00:05:05;;;;;;;;;;;29.30;90.30;29.50;99458.00;;;;339467;28;83427;-92
2023/08/24 00:05:17;;;;;;;;;;;29.30;90.30;29.50;99458.00;;;;339833;28;96421;-92
2023/08/24 00:05:29;;;;;;;;;;;29.30;90.30;29.50;99455.00;;;;340783;28;83427;-92
2023/08/24 00:05:42;;;;;;;;;;;29.30;90.30;29.50;99451.00;;;;338561;28;96656;-91
2023/08/24 00:05:54;;;;;;;;;;;29.30;90.30;29.50;99452.00;;;;340785;28;83332;-92
2023/08/24 00:06:06;;;;;;;;;;;29.40;90.30;29.50;99458.00;;;;342498;28;95799;-92
2023/08/24 00:06:18;;;;;;;;;;;29.40;90.30;29.50;99453.00;;;;339562;28;83429;-92
2023/08/24 00:06:29;;;;;;;;;;;29.40;90.30;29.40;99456.00;;;;340019;28;96204;-92
2023/08/24 00:06:41;;;;;;;;;;;29.40;90.30;29.40;99451.00;;;;340876;28;83356;-92
2023/08/24 00:06:54;;;;;;;;;;;29.40;90.30;29.40;99453.00;;;;339992;28;97468;-92
2023/08/24 00:07:06;;;;;;;;;;;29.40;90.30;29.30;99449.00;;;;339483;28;83219;-92
2023/08/24 00:07:17;;;;;;;;;;;29.40;90.30;29.30;99450.00;;;;337404;28;95547;-92
2023/08/24 00:07:29;;;;;;;;;;;29.40;90.20;29.30;99452.00;;;;342197;28;83347;-91
2023/08/24 00:07:41;;;;;;;;;;;29.40;90.30;29.30;99453.00;;;;339997;28;96721;-92
2023/08/24 00:07:53;;;;;;;;;;;29.30;90.20;29.30;99448.00;;;;340837;28;83369;-92
2023/08/24 00:08:05;;;;;;;;;;;29.30;90.20;29.20;99455.00;;;;338697;28;97350;-92
2023/08/24 00:08:17;;;;;;;;;;;29.30;90.30;29.20;99452.00;;;;338045;28;83527;-92
2023/08/24 00:08:29;;;;;;;;;;;29.30;90.20;29.30;99448.00;;;;340066;28;96597;-92
2023/08/24 00:08:41;;;;;;;;;;;29.30;90.20;29.40;99455.00;;;;339457;28;83490;-92
2023/08/24 00:08:53;;;;;;;;;;;29.30;90.30;29.40;99456.00;;;;337237;28;97018;-92
2023/08/24 00:09:05;;;;;;;;;;;29.30;90.40;29.30;99452.00;;;;340832;28;82525;-92
2023/08/24 00:09:17;;;;;;;;;;;29.30;90.30;29.40;99452.00;;;;339956;28;94243;-92
2023/08/24 00:09:29;;;;;;;;;;;29.30;90.40;29.40;99454.00;;;;340916;28;82457;-93
2023/08/24 00:09:41;;;;;;;;;;;29.30;90.30;29.40;99451.00;;;;337368;28;96978;-92
2023/08/24 00:09:53;;;;;;;;;;;29.30;90.30;29.40;99455.00;;;;339334;28;83524;-92
2023/08/24 00:10:06;;;;;;;;;;;29.30;90.30;29.30;99455.00;;;;338695;28;96666;-92
2023/08/24 00:10:18;;;;;;;;;;;29.30;90.30;29.30;99446.00;;;;338065;28;83523;-92
2023/08/24 00:10:29;;;;;;;;;;;29.30;90.30;29.30;99449.00;;;;338731;28;96788;-92
2023/08/24 00:10:43;;;;;;;;;;;29.30;90.30;29.30;99454.00;;;;340745;28;82584;-92
2023/08/24 00:10:55;;;;;;;;;;;29.30;90.30;29.20;99451.00;;;;337337;28;97320;-92
2023/08/24 00:11:07;;;;;;;;;;;29.30;90.40;29.20;99448.00;;;;338181;28;82467;-92
2023/08/24 00:11:20;;;;;;;;;;;29.30;90.50;29.20;99446.00;;;;337360;28;96762;-93
2023/08/24 00:11:32;;;;;;;;;;;29.30;90.40;29.10;99452.00;;;;338242;28;82504;-92
2023/08/24 00:11:43;;;;;;;;;;;29.30;90.40;29.20;99447.00;;;;341382;28;96441;-91
2023/08/24 00:11:55;;;;;;;;;;;29.30;90.40;29.20;99443.00;;;;340746;28;83404;-92
2023/08/24 00:12:07;;;;;;;;;;;29.30;90.50;29.20;99443.00;;;;340027;28;96829;-92
2023/08/24 00:12:19;;;;;;;;;;;29.30;90.50;29.20;99443.00;;;;339432;28;83439;-92
2023/08/24 00:12:32;;;;;;;;;;;29.30;90.50;29.10;99439.00;;;;340063;28;95383;-92
2023/08/24 00:12:44;;;;;;;;;;;29.30;90.50;29.10;99445.00;;;;339410;28;83369;-92
2023/08/24 00:12:56;;;;;;;;;;;29.20;90.50;29.10;99452.00;;;;340019;28;96464;-92
2023/08/24 00:13:08;;;;;;;;;;;29.20;90.50;29.10;99444.00;;;;340804;28;83337;-92
2023/08/24 00:13:20;;;;;;;;;;;29.20;90.50;29.10;99448.00;;;;339941;28;96370;-91
2023/08/24 00:13:32;;;;;;;;;;;29.20;90.60;29.10;99442.00;;;;339544;28;83347;-92
2023/08/24 00:13:48;;;;;;;;;;;29.20;90.50;29.10;99447.00;;;;341395;28;95428;-92
2023/08/24 00:14:00;;;;;;;;;;;29.20;90.50;29.00;99448.00;;;;338023;28;83492;-92
2023/08/24 00:14:12;;;;;;;;;;;29.20;90.60;29.00;99446.00;;;;338683;28;96874;-92
2023/08/24 00:14:24;;;;;;;;;;;29.20;90.60;29.00;99448.00;;;;339571;28;82300;-93
2023/08/24 00:14:36;;;;;;;;;;;29.20;90.60;29.00;99440.00;;;;340016;28;96552;-92
2023/08/24 00:14:49;;;;;;;;;;;29.20;90.70;28.90;99437.00;;;;339513;28;83402;-92
2023/08/24 00:15:01;;;;;;;;;;;29.20;90.70;28.90;99440.00;;;;338718;28;94016;-92
2023/08/24 00:15:13;;;;;;;;;;;29.20;90.70;28.90;99434.00;;;;338211;28;82562;-92
2023/08/24 00:15:25;;;;;;;;;;;29.20;90.70;28.90;99441.00;;;;339811;28;96870;-91
2023/08/24 00:15:36;;;;;;;;;;;29.10;90.70;28.90;99444.00;;;;342170;28;82508;-91
2023/08/24 00:15:48;;;;;;;;;;;29.10;90.70;28.90;99438.00;;;;338869;28;95646;-92
2023/08/24 00:16:00;;;;;;;;;;;29.10;90.80;28.90;99438.00;;;;342027;28;83668;-92
2023/08/24 00:16:12;;;;;;;;;;;29.10;90.80;28.90;99442.00;;;;337397;28;96517;-92
2023/08/24 00:16:24;;;;;;;;;;;29.10;90.70;28.90;99438.00;;;;340810;28;83422;-92
2023/08/24 00:16:36;;;;;;;;;;;29.10;90.70;29.00;99436.00;;;;341416;28;95547;-93
2023/08/24 00:16:49;;;;;;;;;;;29.10;90.70;28.90;99441.00;;;;339448;28;83409;-92
2023/08/24 00:17:01;;;;;;;;;;;29.00;90.60;28.90;99440.00;;;;338690;28;97258;-93
2023/08/24 00:17:13;;;;;;;;;;;29.10;90.60;28.90;99439.00;;;;340861;28;82472;-92
2023/08/24 00:17:25;;;;;;;;;;;29.10;90.80;28.80;99443.00;;;;338618;28;96823;-92
2023/08/24 00:17:37;;;;;;;;;;;29.00;90.80;29.00;99439.00;;;;339443;28;83488;-92
2023/08/24 00:17:49;;;;;;;;;;;29.00;90.70;29.10;99442.00;;;;341393;28;96257;-92
2023/08/24 00:18:02;;;;;;;;;;;29.00;90.80;29.10;99441.00;;;;339419;28;82464;-93
2023/08/24 00:18:14;;;;;;;;;;;29.00;90.80;29.00;99441.00;;;;338502;28;95652;-92
2023/08/24 00:18:26;;;;;;;;;;;29.00;90.80;29.00;99436.00;;;;340836;28;83412;-92
2023/08/24 00:18:38;;;;;;;;;;;29.00;90.80;29.00;99441.00;;;;338609;28;97254;-91
2023/08/24 00:18:50;;;;;;;;;;;29.00;90.70;29.10;99445.00;;;;342110;28;82443;-92
2023/08/24 00:19:02;;;;;;;;;;;29.00;90.80;29.10;99439.00;;;;339751;28;97402;-91
2023/08/24 00:19:14;;;;;;;;;;;29.00;90.80;29.20;99435.00;;;;338138;28;83269;-92
2023/08/24 00:19:26;;;;;;;;;;;29.00;90.80;29.20;99442.00;;;;340021;28;95726;-92
2023/08/24 00:19:37;;;;;;;;;;;29.00;90.80;29.20;99446.00;;;;342030;28;83650;-92
2023/08/24 00:19:49;;;;;;;;;;;29.10;90.80;29.20;99440.00;;;;340072;28;97138;-92
2023/08/24 00:20:04;;;;;;;;;;;29.10;90.80;29.20;99435.00;;;;340753;28;82502;-92
2023/08/24 00:20:16;;;;;;;;;;;29.10;90.80;29.20;99432.00;;;;338879;28;95237;-92
2023/08/24 00:20:28;;;;;;;;;;;29.10;90.80;29.20;99433.00;;;;338153;28;83468;-93
2023/08/24 00:20:40;;;;;;;;;;;29.10;90.80;29.30;99439.00;;;;338692;28;96461;-92
2023/08/24 00:20:51;;;;;;;;;;;29.10;90.80;29.20;99445.00;;;;339335;28;82668;-92
2023/08/24 00:21:03;;;;;;;;;;;29.10;90.80;29.20;99436.00;;;;339942;28;97598;-92
2023/08/24 00:21:22;;;;;;;;;;;29.10;90.70;29.20;99437.00;;;;340676;28;83406;-92
2023/08/24 00:21:34;;;;;;;;;;;29.10;90.80;29.20;99434.00;;;;340038;28;96856;-92
2023/08/24 00:21:46;;;;;;;;;;;29.10;90.70;29.20;99434.00;;;;340709;28;83455;-92
2023/08/24 00:21:58;;;;;;;;;;;29.10;90.80;29.30;99430.00;;;;339995;28;95914;-92
2023/08/24 00:22:10;;;;;;;;;;;29.10;90.80;29.30;99440.00;;;;340819;28;82541;-92
2023/08/24 00:22:23;;;;;;;;;;;29.10;90.80;29.20;99446.00;;;;338676;28;95829;-91
2023/08/24 00:22:34;;;;;;;;;;;29.10;90.70;29.20;99439.00;;;;340840;28;82399;-91
2023/08/24 00:22:46;;;;;;;;;;;29.10;90.70;29.20;99440.00;;;;341271;28;96325;-92
2023/08/24 00:22:58;;;;;;;;;;;29.10;90.70;29.10;99434.00;;;;339387;28;83270;-92
2023/08/24 00:23:10;;;;;;;;;;;29.10;90.70;29.20;99437.00;;;;340007;28;96086;-93
2023/08/24 00:23:22;;;;;;;;;;;29.10;90.70;29.10;99436.00;;;;341886;28;83544;-92
2023/08/24 00:23:34;;;;;;;;;;;29.10;90.70;29.10;99439.00;;;;340097;28;96430;-93
2023/08/24 00:23:46;;;;;;;;;;;29.10;90.70;29.10;99440.00;;;;339455;28;82455;-92
2023/08/24 00:23:59;;;;;;;;;;;29.10;90.70;29.10;99434.00;;;;339932;28;96778;-92
2023/08/24 00:24:11;;;;;;;;;;;29.10;90.70;29.10;99440.00;;;;342236;28;83316;-92
2023/08/24 00:24:23;;;;;;;;;;;29.10;90.70;29.00;99434.00;;;;340027;28;96231;-93
2023/08/24 00:24:35;;;;;;;;;;;29.10;90.70;29.10;99434.00;;;;340908;28;82410;-92
2023/08/24 00:24:46;;;;;;;;;;;29.10;90.70;29.10;99434.00;;;;341280;28;96517;-91
2023/08/24 00:24:58;;;;;;;;;;;29.10;90.70;29.10;99426.00;;;;340824;28;82462;-92
2023/08/24 00:25:10;;;;;;;;;;;29.10;90.70;29.10;99436.00;;;;338793;28;94914;-92
2023/08/24 00:25:22;;;;;;;;;;;29.10;90.70;29.00;99434.00;;;;340718;28;82523;-92
2023/08/24 00:25:34;;;;;;;;;;;29.10;90.70;29.00;99428.00;;;;338700;28;96514;-92
2023/08/24 00:25:45;;;;;;;;;;;29.10;90.80;29.00;99437.00;;;;339494;28;83481;-92
2023/08/24 00:25:57;;;;;;;;;;;29.10;90.80;29.00;99440.00;;;;338664;28;96615;-92
2023/08/24 00:26:09;;;;;;;;;;;29.10;90.70;29.00;99429.00;;;;339448;28;83374;-92
2023/08/24 00:26:21;;;;;;;;;;;29.10;90.70;29.00;99433.00;;;;340083;28;94941;-92
2023/08/24 00:26:33;;;;;;;;;;;29.10;90.70;29.00;99426.00;;;;342251;28;82464;-92
2023/08/24 00:26:45;;;;;;;;;;;29.10;90.80;29.00;99427.00;;;;341217;28;96466;-91
2023/08/24 00:26:57;;;;;;;;;;;29.00;90.80;29.00;99437.00;;;;340631;28;83358;-92
2023/08/24 00:27:09;;;;;;;;;;;29.00;90.80;29.00;99426.00;;;;337104;28;97768;-92
2023/08/24 00:27:21;;;;;;;;;;;29.00;91.00;28.90;99428.00;;;;340548;28;83431;-92
2023/08/24 00:27:33;;;;;;;;;;;29.00;90.90;28.90;99434.00;;;;341378;28;96350;-93
2023/08/24 00:27:45;;;;;;;;;;;29.00;91.00;28.90;99427.00;;;;340803;28;83379;-92
2023/08/24 00:27:57;;;;;;;;;;;29.00;91.00;28.90;99424.00;;;;338677;28;96622;-92
2023/08/24 00:28:08;;;;;;;;;;;29.00;90.90;28.90;99428.00;;;;338107;28;82606;-92
2023/08/24 00:28:20;;;;;;;;;;;29.00;91.00;28.90;99424.00;;;;338618;28;96978;-91
2023/08/24 00:28:32;;;;;;;;;;;29.00;91.20;28.90;99430.00;;;;340902;28;83352;-92
2023/08/24 00:28:45;;;;;;;;;;;29.00;91.00;28.90;99434.00;;;;339943;28;96729;-92
2023/08/24 00:28:57;;;;;;;;;;;29.00;91.00;28.80;99425.00;;;;340922;28;83288;-92
2023/08/24 00:29:09;;;;;;;;;;;29.00;91.00;28.90;99422.00;;;;338663;28;96576;-92
2023/08/24 00:29:21;;;;;;;;;;;29.00;91.00;28.90;99423.00;;;;340841;28;83438;-92
2023/08/24 00:29:33;;;;;;;;;;;29.00;90.90;29.00;99428.00;;;;339937;28;96453;-93
2023/08/24 00:29:45;;;;;;;;;;;29.00;91.00;29.00;99426.00;;;;340904;28;83243;-92
2023/08/24 00:29:57;;;;;;;;;;;29.00;90.90;29.10;99423.00;;;;341283;28;96728;-92
2023/08/24 00:30:10;;;;;;;;;;;29.00;91.00;29.10;99426.00;;;;339270;28;82604;-92
2023/08/24 00:30:22;;;;;;;;;;;29.00;91.00;29.00;99421.00;;;;337325;28;96821;-91
2023/08/24 00:30:34;;;;;;;;;;;29.00;91.00;29.10;99419.00;;;;342143;28;83185;-93
2023/08/24 00:30:46;;;;;;;;;;;29.00;91.00;29.20;99428.00;;;;338675;28;96340;-92
2023/08/24 00:30:58;;;;;;;;;;;29.00;91.10;29.10;99413.00;;;;339482;28;83462;-92
2023/08/24 00:31:10;;;;;;;;;;;29.00;91.10;29.10;99419.00;;;;340023;28;97186;-93
2023/08/24 00:31:22;;;;;;;;;;;29.00;91.10;28.90;99417.00;;;;340718;28;83178;-92
2023/08/24 00:31:34;;;;;;;;;;;29.00;91.10;28.90;99410.00;;;;337400;28;95580;-92
2023/08/24 00:31:46;;;;;;;;;;;29.00;91.10;28.90;99412.00;;;;342180;28;83398;-91
2023/08/24 00:31:58;;;;;;;;;;;29.00;91.10;29.00;99413.00;;;;341239;28;96318;-92
2023/08/24 00:32:10;;;;;;;;;;;29.00;91.00;28.90;99408.00;;;;340818;28;83308;-93
2023/08/24 00:32:22;;;;;;;;;;;29.00;90.90;28.80;99407.00;;;;340079;28;96330;-92
2023/08/24 00:32:35;;;;;;;;;;;29.00;91.00;28.80;99403.00;;;;340837;28;82543;-92
2023/08/24 00:32:47;;;;;;;;;;;29.00;91.20;28.80;99411.00;;;;338656;28;96898;-92
2023/08/24 00:32:59;;;;;;;;;;;29.00;91.10;28.70;99408.00;;;;342255;28;83434;-92
2023/08/24 00:33:10;;;;;;;;;;;29.00;91.10;28.70;99409.00;;;;339920;28;97529;-92
2023/08/24 00:33:22;;;;;;;;;;;29.00;91.30;28.80;99408.00;;;;340731;28;82595;-92
2023/08/24 00:33:34;;;;;;;;;;;29.00;91.40;28.60;99407.00;;;;340054;28;93229;-92
2023/08/24 00:33:46;;;;;;;;;;;28.90;91.50;28.70;99409.00;;;;338066;28;83288;-92
2023/08/24 00:33:58;;;;;;;;;;;28.90;91.40;28.70;99409.00;;;;342666;28;96336;-92
2023/08/24 00:34:10;;;;;;;;;;;28.90;91.40;28.70;99405.00;;;;342109;28;83450;-92
2023/08/24 00:34:21;;;;;;;;;;;28.90;91.20;28.70;99404.00;;;;338717;28;97153;-93
2023/08/24 00:34:33;;;;;;;;;;;28.90;91.30;28.60;99404.00;;;;339492;28;82520;-92
2023/08/24 00:34:45;;;;;;;;;;;28.90;91.20;28.60;99408.00;;;;341423;28;95139;-92
2023/08/24 00:34:57;;;;;;;;;;;28.90;91.30;28.60;99407.00;;;;339410;28;83298;-92
2023/08/24 00:35:10;;;;;;;;;;;28.90;91.30;28.70;99405.00;;;;338658;28;97592;-92
2023/08/24 00:35:22;;;;;;;;;;;28.90;91.30;28.60;99401.00;;;;340778;28;83378;-92
2023/08/24 00:35:34;;;;;;;;;;;28.80;91.30;28.50;99403.00;;;;340009;28;96625;-92
2023/08/24 00:35:45;;;;;;;;;;;28.80;91.40;28.50;99398.00;;;;339430;28;83482;-92
2023/08/24 00:36:01;;;;;;;;;;;28.80;91.40;28.50;99398.00;;;;341379;28;94763;-93
2023/08/24 00:36:13;;;;;;;;;;;28.80;91.40;28.50;99402.00;;;;339493;28;83393;-92
2023/08/24 00:36:25;;;;;;;;;;;28.80;91.40;28.50;99404.00;;;;338776;28;95676;-92
2023/08/24 00:36:37;;;;;;;;;;;28.80;91.50;28.60;99399.00;;;;340699;28;83406;-93
2023/08/24 00:36:49;;;;;;;;;;;28.80;91.50;28.50;99403.00;;;;340015;28;96894;-93
2023/08/24 00:37:01;;;;;;;;;;;28.80;91.50;28.50;99398.00;;;;339432;28;82638;-92
2023/08/24 00:37:12;;;;;;;;;;;28.80;91.40;28.60;99405.00;;;;341295;28;96977;-92
2023/08/24 00:37:24;;;;;;;;;;;28.80;91.50;28.60;99395.00;;;;339464;28;82544;-92
2023/08/24 00:37:37;;;;;;;;;;;28.80;91.30;28.60;99404.00;;;;337357;28;96540;-92
2023/08/24 00:37:50;;;;;;;;;;;28.80;91.40;28.50;99402.00;;;;340753;28;83452;-93
2023/08/24 00:38:02;;;;;;;;;;;28.80;91.50;28.50;99406.00;;;;341172;28;95299;-92
2023/08/24 00:38:14;;;;;;;;;;;28.80;91.70;28.50;99401.00;;;;338174;28;82498;-92
2023/08/24 00:38:27;;;;;;;;;;;28.70;91.50;28.50;99399.00;;;;340060;28;95153;-92
2023/08/24 00:38:39;;;;;;;;;;;28.80;91.40;28.70;99402.00;;;;342086;28;83923;-92
2023/08/24 00:38:53;;;;;;;;;;;28.80;91.30;28.70;99407.00;;;;338638;28;95693;-92
2023/08/24 00:39:06;;;;;;;;;;;28.70;91.30;28.60;99403.00;;;;340738;28;82423;-92
2023/08/24 00:39:18;;;;;;;;;;;28.80;91.40;28.70;99405.00;;;;341277;28;97597;-91
2023/08/24 00:39:30;;;;;;;;;;;28.80;91.40;28.80;99398.00;;;;342171;28;82518;-92
2023/08/24 00:39:41;;;;;;;;;;;28.70;91.40;28.80;99397.00;;;;341355;28;95698;-92
2023/08/24 00:39:53;;;;;;;;;;;28.80;91.50;28.80;99408.00;;;;342137;28;83417;-92
2023/08/24 00:40:09;;;;;;;;;;;28.80;91.40;28.80;99403.00;;;;338655;28;95121;-92
2023/08/24 00:40:21;;;;;;;;;;;28.80;91.40;28.80;99406.00;;;;336788;28;83306;-92
2023/08/24 00:40:34;;;;;;;;;;;28.80;91.40;28.80;99401.00;;;;340010;28;95546;-92
2023/08/24 00:40:46;;;;;;;;;;;28.80;91.40;28.70;99403.00;;;;343509;28;82407;-92
2023/08/24 00:40:58;;;;;;;;;;;28.80;91.40;28.70;99406.00;;;;340011;28;96805;-92
2023/08/24 00:41:10;;;;;;;;;;;28.80;91.40;28.70;99403.00;;;;339468;28;83326;-92
2023/08/24 00:41:24;;;;;;;;;;;28.70;91.30;28.70;99404.00;;;;339901;28;96241;-92
2023/08/24 00:41:36;;;;;;;;;;;28.80;91.30;28.70;99405.00;;;;343517;28;82594;-93
2023/08/24 00:41:49;;;;;;;;;;;28.80;91.40;28.60;99403.00;;;;338662;28;96294;-92
2023/08/24 00:42:01;;;;;;;;;;;28.70;91.40;28.50;99399.00;;;;339415;28;83334;-92
2023/08/24 00:42:15;;;;;;;;;;;28.70;91.50;28.50;99401.00;;;;339924;28;96460;-92
2023/08/24 00:42:26;;;;;;;;;;;28.80;91.50;28.60;99408.00;;;;340788;28;83509;-92
2023/08/24 00:42:39;;;;;;;;;;;28.70;91.50;28.60;99403.00;;;;339850;28;96831;-92
2023/08/24 00:42:51;;;;;;;;;;;28.70;91.40;28.60;99405.00;;;;339499;28;82547;-92
2023/08/24 00:43:03;;;;;;;;;;;28.70;91.60;28.60;99408.00;;;;338703;28;95518;-92
2023/08/24 00:43:15;;;;;;;;;;;28.70;91.60;28.60;99405.00;;;;339319;28;83422;-92
2023/08/24 00:43:27;;;;;;;;;;;28.70;91.60;28.50;99406.00;;;;338605;28;97604;-92
2023/08/24 00:43:39;;;;;;;;;;;28.70;91.60;28.50;99410.00;;;;342099;28;83407;-92
2023/08/24 00:43:50;;;;;;;;;;;28.70;91.60;28.50;99405.00;;;;338607;28;97013;-92
2023/08/24 00:44:02;;;;;;;;;;;28.70;91.60;28.50;99410.00;;;;337999;28;83476;-92
2023/08/24 00:44:14;;;;;;;;;;;28.70;91.60;28.60;99404.00;;;;340036;28;95370;-92
2023/08/24 00:44:26;;;;;;;;;;;28.70;91.50;28.70;99407.00;;;;340809;28;82536;-92
2023/08/24 00:44:38;;;;;;;;;;;28.70;91.60;28.80;99408.00;;;;337336;28;96405;-93
2023/08/24 00:44:50;;;;;;;;;;;28.70;91.60;28.80;99404.00;;;;340797;28;82547;-92
2023/08/24 00:45:02;;;;;;;;;;;28.70;91.60;28.80;99405.00;;;;341320;28;96450;-92
2023/08/24 00:45:14;;;;;;;;;;;28.70;91.60;28.80;99407.00;;;;340769;28;83401;-92
2023/08/24 00:45:27;;;;;;;;;;;28.70;91.50;28.80;99404.00;;;;339981;28;96134;-92
2023/08/24 00:45:39;;;;;;;;;;;28.70;91.50;28.90;99402.00;;;;342153;28;83348;-92
2023/08/24 00:45:51;;;;;;;;;;;28.70;91.50;28.80;99409.00;;;;338713;28;96358;-92
2023/08/24 00:46:03;;;;;;;;;;;28.70;91.50;28.80;99412.00;;;;340693;28;82556;-92
2023/08/24 00:46:15;;;;;;;;;;;28.70;91.50;28.90;99410.00;;;;342773;28;95354;-92
2023/08/24 00:46:27;;;;;;;;;;;28.70;91.70;28.90;99406.00;;;;342126;28;83210;-92
2023/08/24 00:46:41;;;;;;;;;;;28.70;91.50;28.90;99407.00;;;;339965;28;95588;-90
2023/08/24 00:46:53;;;;;;;;;;;28.80;91.50;28.90;99410.00;;;;342169;28;82305;-92
2023/08/24 00:47:06;;;;;;;;;;;28.80;91.50;28.90;99400.00;;;;339979;28;95390;-92
2023/08/24 00:47:18;;;;;;;;;;;28.70;91.40;28.90;99405.00;;;;338045;28;83429;-92
2023/08/24 00:47:30;;;;;;;;;;;28.70;91.80;28.90;99406.00;;;;338586;28;97367;-93
2023/08/24 00:47:46;;;;;;;;;;;28.80;91.50;29.00;99405.00;;;;340736;28;83327;-92
2023/08/24 00:47:57;;;;;;;;;;;28.80;91.50;28.80;99404.00;;;;341300;28;97132;-92
2023/08/24 00:48:09;;;;;;;;;;;28.80;91.60;28.80;99409.00;;;;340801;28;82521;-92
2023/08/24 00:48:25;;;;;;;;;;;28.80;91.60;28.80;99401.00;;;;339968;28;95660;-93
2023/08/24 00:48:37;;;;;;;;;;;28.80;91.50;28.90;99405.00;;;;340739;28;83380;-92
2023/08/24 00:48:49;;;;;;;;;;;28.80;91.50;28.90;99406.00;;;;338548;28;96495;-92
2023/08/24 00:49:01;;;;;;;;;;;28.80;91.50;28.80;99406.00;;;;340822;28;83367;-92
2023/08/24 00:49:12;;;;;;;;;;;28.80;91.50;28.60;99407.00;;;;342750;28;96670;-92
2023/08/24 00:49:24;;;;;;;;;;;28.80;91.50;28.60;99408.00;;;;339345;28;83424;-92
2023/08/24 00:49:36;;;;;;;;;;;28.80;91.60;28.60;99404.00;;;;337274;28;97439;-92
2023/08/24 00:49:48;;;;;;;;;;;28.80;91.70;28.60;99407.00;;;;340758;28;83492;-93
2023/08/24 00:50:00;;;;;;;;;;;28.80;91.70;28.60;99404.00;;;;340100;28;95584;-92
2023/08/24 00:50:12;;;;;;;;;;;28.70;91.80;28.60;99403.00;;;;342081;28;83449;-92
2023/08/24 00:50:24;;;;;;;;;;;28.70;91.80;28.50;99398.00;;;;341338;28;96707;-92
2023/08/24 00:50:36;;;;;;;;;;;28.70;91.70;28.50;99412.00;;;;342164;28;83403;-92
2023/08/24 00:50:47;;;;;;;;;;;28.80;91.80;28.50;99401.00;;;;341388;28;95326;-92
2023/08/24 00:51:00;;;;;;;;;;;28.70;91.70;28.60;99405.00;;;;340797;28;82406;-92
2023/08/24 00:51:12;;;;;;;;;;;28.80;91.80;28.60;99403.00;;;;337344;28;96758;-92
2023/08/24 00:51:24;;;;;;;;;;;28.80;91.70;28.50;99401.00;;;;340626;28;83688;-92
2023/08/24 00:51:35;;;;;;;;;;;28.70;91.70;28.60;99401.00;;;;339924;28;97781;-92
2023/08/24 00:51:47;;;;;;;;;;;28.70;91.70;28.60;99405.00;;;;339411;28;83335;-92
2023/08/24 00:52:00;;;;;;;;;;;28.70;91.50;28.60;99398.00;;;;339939;28;96191;-92
2023/08/24 00:52:11;;;;;;;;;;;28.70;91.50;28.60;99404.00;;;;340802;28;83339;-92
2023/08/24 00:52:25;;;;;;;;;;;28.70;91.70;28.60;99404.00;;;;334842;29;95989;-91
2023/08/24 00:52:39;;;;;;;;;;;28.70;91.60;28.60;99411.00;;;;338079;28;83395;-92
2023/08/24 00:52:51;;;;;;;;;;;28.70;91.80;28.60;99401.00;;;;338625;28;95673;-92
2023/08/24 00:53:03;;;;;;;;;;;28.70;91.70;28.60;99412.00;;;;340854;28;82500;-92
2023/08/24 00:53:15;;;;;;;;;;;28.70;91.60;28.60;99404.00;;;;339966;28;96846;-92
2023/08/24 00:53:28;;;;;;;;;;;28.70;91.70;28.60;99405.00;;;;338166;28;83385;-92
2023/08/24 00:53:39;;;;;;;;;;;28.70;91.60;28.60;99410.00;;;;338632;28;96878;-92
2023/08/24 00:53:51;;;;;;;;;;;28.70;91.70;28.60;99411.00;;;;342011;28;82518;-92
2023/08/24 00:54:04;;;;;;;;;;;28.70;91.70;28.60;99410.00;;;;338619;28;96573;-92
2023/08/24 00:54:16;;;;;;;;;;;28.70;91.70;28.60;99410.00;;;;340789;28;82500;-92
2023/08/24 00:54:28;;;;;;;;;;;28.70;91.70;28.50;99410.00;;;;341419;28;95144;-92
2023/08/24 00:54:40;;;;;;;;;;;28.70;91.80;28.50;99404.00;;;;340732;28;83280;-93
2023/08/24 00:54:52;;;;;;;;;;;28.70;91.80;28.60;99410.00;;;;339876;28;96855;-92
2023/08/24 00:55:06;;;;;;;;;;;28.70;91.70;28.60;99404.00;;;;340779;28;83507;-91
2023/08/24 00:55:18;;;;;;;;;;;28.70;91.70;28.60;99409.00;;;;342619;28;96504;-92
2023/08/24 00:55:30;;;;;;;;;;;28.60;91.70;28.60;99407.00;;;;339485;28;82509;-92
2023/08/24 00:55:42;;;;;;;;;;;28.70;91.70;28.60;99408.00;;;;338641;28;97248;-91
2023/08/24 00:55:55;;;;;;;;;;;28.70;91.60;28.60;99407.00;;;;342118;28;83457;-92
2023/08/24 00:56:06;;;;;;;;;;;28.70;91.70;28.60;99405.00;;;;341014;28;96917;-92
2023/08/24 00:56:24;;;;;;;;;;;28.70;91.70;28.60;99405.00;;;;338025;28;83494;-92
2023/08/24 00:56:36;;;;;;;;;;;28.70;91.70;28.60;99409.00;;;;340016;28;96889;-92
2023/08/24 00:56:48;;;;;;;;;;;28.70;91.60;28.60;99413.00;;;;340842;28;83421;-92
2023/08/24 00:57:00;;;;;;;;;;;28.70;91.70;28.60;99407.00;;;;338750;28;93849;-92
2023/08/24 00:57:11;;;;;;;;;;;28.60;91.60;28.60;99401.00;;;;340798;28;82518;-92
2023/08/24 00:57:23;;;;;;;;;;;28.60;91.60;28.60;99403.00;;;;339929;28;95887;-92
2023/08/24 00:57:36;;;;;;;;;;;28.70;91.70;28.70;99405.00;;;;340723;28;83376;-93
2023/08/24 00:57:47;;;;;;;;;;;28.70;91.70;28.60;99406.00;;;;338596;28;96399;-92
2023/08/24 00:58:00;;;;;;;;;;;28.60;91.80;28.60;99406.00;;;;338101;28;83406;-92
2023/08/24 00:58:11;;;;;;;;;;;28.70;91.90;28.60;99402.00;;;;337330;28;96519;-92
2023/08/24 00:58:23;;;;;;;;;;;28.60;91.70;28.60;99398.00;;;;339417;28;83463;-93
2023/08/24 00:58:35;;;;;;;;;;;28.60;91.70;28.70;99406.00;;;;340025;28;95519;-92
2023/08/24 00:58:47;;;;;;;;;;;28.70;91.80;28.70;99406.00;;;;339418;28;83443;-92
2023/08/24 00:58:59;;;;;;;;;;;28.70;91.90;28.80;99406.00;;;;337315;28;94928;-92
2023/08/24 00:59:11;;;;;;;;;;;28.70;91.90;28.80;99403.00;;;;338143;28;82340;-92
2023/08/24 00:59:23;;;;;;;;;;;28.70;91.90;28.70;99406.00;;;;338597;28;96260;-92
2023/08/24 00:59:35;;;;;;;;;;;28.70;91.90;28.80;99404.00;;;;340848;28;83371;-92
2023/08/24 00:59:47;;;;;;;;;;;28.70;91.90;28.80;99402.00;;;;339961;28;96062;-92
2023/08/24 01:00:05;;;;;;;;;;;28.70;91.90;28.70;99413.00;;;;340635;28;83531;-92
2023/08/24 01:00:17;;;;;;;;;;;28.70;91.90;28.60;99406.00;;;;338646;28;96549;-92